PWSweather.com
Personal Weather Stations
Station Observations
ANTHEMNP
Anthem, AZ 85086

Anthem, AZ 85086

Lat: 33.876464, Lon: -112.13861199999997

Elevation: 1930

Station Type: AcuRite 1036

High Low Average
Temperature 102.2°F39.0°F 78.1°F25.6°F 90.3°F32.4°F
Dew Point 59.2°F15.1°F 52.9°F11.6°F 56.3°F13.5°F
Winds 11.5 mph NNE18.5 mph NNE Calm Calm 4.4 mph 7.1 mph
Wind Gusts 13.8 mph22.2 mph -- 5.5 mph8.9 mph
Humidity 43% 24% 32%
Pressure 29.98 in1015.20 in 29.89 in1012.20 in -
Precipitation 0.00 in0.00 in - -
Hour Temp Dew Point Humidity Winds Wind Gusts Pressure Precip Precip Rate Daily Precip Total
12:00 AM 84.9°F29.4°C 54.2°F12.3°C 35% 9.2 mph ENE14.8 kmh ENE 10.4 mph16.7 kmh 29.91 in1012.9 mb - 0.00 in0.0 mm 0.00 in0.0 mm
12:05 AM 84.9°F29.4°C 54.2°F12.3°C 35% 8.1 mph NE13.0 kmh NE 10.4 mph16.7 kmh 29.91 in1012.9 mb - 0.00 in0.0 mm 0.00 in0.0 mm
12:10 AM 84.9°F29.4°C 54.2°F12.3°C 35% 9.2 mph N14.8 kmh N 12.7 mph20.4 kmh 29.91 in1012.9 mb - 0.00 in0.0 mm 0.00 in0.0 mm
12:15 AM 84.7°F29.3°C 54.8°F12.7°C 36% 9.2 mph NE14.8 kmh NE 10.4 mph16.7 kmh 29.91 in1012.9 mb - 0.00 in0.0 mm 0.00 in0.0 mm
12:20 AM 84.7°F29.3°C 54.8°F12.7°C 36% 8.1 mph NE13.0 kmh NE 10.4 mph16.7 kmh 29.91 in1012.9 mb - 0.00 in0.0 mm 0.00 in0.0 mm
12:25 AM 84.7°F29.3°C 54.8°F12.7°C 36% 8.1 mph NE13.0 kmh NE 8.1 mph13.0 kmh 29.91 in1012.9 mb - 0.00 in0.0 mm 0.00 in0.0 mm
12:30 AM 84.7°F29.3°C 54.8°F12.7°C 36% 8.1 mph N13.0 kmh N 8.1 mph13.0 kmh 29.91 in1012.9 mb - 0.00 in0.0 mm 0.00 in0.0 mm
12:35 AM 84.7°F29.3°C 54.8°F12.7°C 36% 6.9 mph NE11.1 kmh NE 8.1 mph13.0 kmh 29.91 in1012.9 mb - 0.00 in0.0 mm 0.00 in0.0 mm
12:40 AM 84.6°F29.2°C 54.7°F12.6°C 36% 10.4 mph NE16.7 kmh NE 10.4 mph16.7 kmh 29.91 in1012.9 mb - 0.00 in0.0 mm 0.00 in0.0 mm
12:45 AM 84.4°F29.1°C 54.5°F12.5°C 36% 8.1 mph N13.0 kmh N 8.1 mph13.0 kmh 29.90 in1012.5 mb - 0.00 in0.0 mm 0.00 in0.0 mm
12:50 AM 84.2°F29.0°C 55.1°F12.8°C 37% 8.1 mph N13.0 kmh N 10.4 mph16.7 kmh 29.90 in1012.5 mb - 0.00 in0.0 mm 0.00 in0.0 mm
12:55 AM 83.9°F28.8°C 54.8°F12.7°C 37% 9.2 mph NE14.8 kmh NE 9.2 mph14.8 kmh 29.90 in1012.5 mb - 0.00 in0.0 mm 0.00 in0.0 mm
01:00 AM 83.8°F28.8°C 55.5°F13.1°C 38% 8.1 mph NNE13.0 kmh NNE 11.5 mph18.5 kmh 29.90 in1012.5 mb - 0.00 in0.0 mm 0.00 in0.0 mm
01:05 AM 83.6°F28.7°C 55.3°F12.9°C 38% 8.1 mph NNE13.0 kmh NNE 11.5 mph18.5 kmh 29.90 in1012.5 mb - 0.00 in0.0 mm 0.00 in0.0 mm
01:10 AM 83.5°F28.6°C 55.2°F12.9°C 38% 8.1 mph N13.0 kmh N 9.2 mph14.8 kmh 29.90 in1012.5 mb - 0.00 in0.0 mm 0.00 in0.0 mm
01:15 AM 83.3°F28.5°C 55.0°F12.8°C 38% 8.1 mph N13.0 kmh N 8.1 mph13.0 kmh 29.90 in1012.5 mb - 0.00 in0.0 mm 0.00 in0.0 mm
01:20 AM 83.3°F28.5°C 55.0°F12.8°C 38% 8.1 mph NNE13.0 kmh NNE 10.4 mph16.7 kmh 29.90 in1012.5 mb - 0.00 in0.0 mm 0.00 in0.0 mm
01:25 AM 83.1°F28.4°C 55.6°F13.1°C 39% 8.1 mph NE13.0 kmh NE 10.4 mph16.7 kmh 29.90 in1012.5 mb - 0.00 in0.0 mm 0.00 in0.0 mm
01:30 AM 82.9°F28.3°C 55.4°F13.0°C 39% 6.9 mph NNW11.1 kmh NNW 10.4 mph16.7 kmh 29.90 in1012.5 mb - 0.00 in0.0 mm 0.00 in0.0 mm
01:35 AM 82.9°F28.3°C 55.4°F13.0°C 39% 6.9 mph NE11.1 kmh NE 9.2 mph14.8 kmh 29.90 in1012.5 mb - 0.00 in0.0 mm 0.00 in0.0 mm
01:40 AM 82.9°F28.3°C 55.4°F13.0°C 39% 9.2 mph N14.8 kmh N 9.2 mph14.8 kmh 29.90 in1012.5 mb - 0.00 in0.0 mm 0.00 in0.0 mm
01:45 AM 82.9°F28.3°C 55.4°F13.0°C 39% 6.9 mph N11.1 kmh N 6.9 mph11.1 kmh 29.90 in1012.5 mb - 0.00 in0.0 mm 0.00 in0.0 mm
01:50 AM 82.9°F28.3°C 55.4°F13.0°C 39% 6.9 mph NNE11.1 kmh NNE 8.1 mph13.0 kmh 29.90 in1012.5 mb - 0.00 in0.0 mm 0.00 in0.0 mm
01:55 AM 82.9°F28.3°C 55.4°F13.0°C 39% 9.2 mph NNE14.8 kmh NNE 10.4 mph16.7 kmh 29.90 in1012.5 mb - 0.00 in0.0 mm 0.00 in0.0 mm
02:00 AM 82.8°F28.2°C 55.3°F12.9°C 39% 9.2 mph N14.8 kmh N 10.4 mph16.7 kmh 29.90 in1012.5 mb - 0.00 in0.0 mm 0.00 in0.0 mm
02:05 AM 82.8°F28.2°C 55.3°F12.9°C 39% 9.2 mph N14.8 kmh N 10.4 mph16.7 kmh 29.90 in1012.5 mb - 0.00 in0.0 mm 0.00 in0.0 mm
02:10 AM 82.8°F28.2°C 55.3°F12.9°C 39% 8.1 mph NNE13.0 kmh NNE 11.5 mph18.5 kmh 29.90 in1012.5 mb - 0.00 in0.0 mm 0.00 in0.0 mm
02:15 AM 82.8°F28.2°C 55.3°F12.9°C 39% 9.2 mph N14.8 kmh N 10.4 mph16.7 kmh 29.90 in1012.5 mb - 0.00 in0.0 mm 0.00 in0.0 mm
02:20 AM 82.8°F28.2°C 55.3°F12.9°C 39% 9.2 mph NE14.8 kmh NE 10.4 mph16.7 kmh 29.91 in1012.9 mb - 0.00 in0.0 mm 0.00 in0.0 mm
02:25 AM 82.8°F28.2°C 56.0°F13.3°C 40% 4.6 mph NE7.4 kmh NE 6.9 mph11.1 kmh 29.91 in1012.9 mb - 0.00 in0.0 mm 0.00 in0.0 mm
02:30 AM 82.6°F28.1°C 55.8°F13.2°C 40% 9.2 mph NE14.8 kmh NE 12.7 mph20.4 kmh 29.91 in1012.9 mb - 0.00 in0.0 mm 0.00 in0.0 mm
02:35 AM 82.6°F28.1°C 55.8°F13.2°C 40% 8.1 mph NE13.0 kmh NE 10.4 mph16.7 kmh 29.91 in1012.9 mb - 0.00 in0.0 mm 0.00 in0.0 mm
02:40 AM 82.6°F28.1°C 55.8°F13.2°C 40% 8.1 mph NE13.0 kmh NE 9.2 mph14.8 kmh 29.91 in1012.9 mb - 0.00 in0.0 mm 0.00 in0.0 mm
02:45 AM 82.6°F28.1°C 55.8°F13.2°C 40% 8.1 mph NNE13.0 kmh NNE 10.4 mph16.7 kmh 29.91 in1012.9 mb - 0.00 in0.0 mm 0.00 in0.0 mm
02:50 AM 82.4°F28.0°C 55.7°F13.2°C 40% 5.8 mph NNE9.3 kmh NNE 5.8 mph9.3 kmh 29.91 in1012.9 mb - 0.00 in0.0 mm 0.00 in0.0 mm
02:55 AM 82.2°F27.9°C 55.5°F13.1°C 40% 5.8 mph NNE9.3 kmh NNE 6.9 mph11.1 kmh 29.91 in1012.9 mb - 0.00 in0.0 mm 0.00 in0.0 mm
03:00 AM 82.2°F27.9°C 55.5°F13.1°C 40% 6.9 mph N11.1 kmh N 8.1 mph13.0 kmh 29.91 in1012.9 mb - 0.00 in0.0 mm 0.00 in0.0 mm
03:05 AM 82.0°F27.8°C 56.0°F13.3°C 41% 5.8 mph NNE9.3 kmh NNE 6.9 mph11.1 kmh 29.91 in1012.9 mb - 0.00 in0.0 mm 0.00 in0.0 mm
03:10 AM 82.0°F27.8°C 56.0°F13.3°C 41% 4.6 mph NNE7.4 kmh NNE 5.8 mph9.3 kmh 29.91 in1012.9 mb - 0.00 in0.0 mm 0.00 in0.0 mm
03:15 AM 82.0°F27.8°C 56.0°F13.3°C 41% 3.5 mph N5.6 kmh N 3.5 mph5.6 kmh 29.91 in1012.9 mb - 0.00 in0.0 mm 0.00 in0.0 mm
03:20 AM 81.7°F27.6°C 55.7°F13.2°C 41% 3.5 mph NNE5.6 kmh NNE 4.6 mph7.4 kmh 29.91 in1012.9 mb - 0.00 in0.0 mm 0.00 in0.0 mm
03:25 AM 81.7°F27.6°C 55.7°F13.2°C 41% 3.5 mph NE5.6 kmh NE 5.8 mph9.3 kmh 29.91 in1012.9 mb - 0.00 in0.0 mm 0.00 in0.0 mm
03:30 AM 81.5°F27.5°C 55.5°F13.1°C 41% 3.5 mph N5.6 kmh N 3.5 mph5.6 kmh 29.91 in1012.9 mb - 0.00 in0.0 mm 0.00 in0.0 mm
03:35 AM 81.4°F27.4°C 55.5°F13.1°C 41% 2.3 mph ESE3.7 kmh ESE 2.3 mph3.7 kmh 29.91 in1012.9 mb - 0.00 in0.0 mm 0.00 in0.0 mm
03:40 AM 81.1°F27.3°C 55.2°F12.9°C 41% 2.3 mph N3.7 kmh N 2.3 mph3.7 kmh 29.91 in1012.9 mb - 0.00 in0.0 mm 0.00 in0.0 mm
03:45 AM 81.0°F27.2°C 55.1°F12.8°C 41% 1.2 mph ENE1.9 kmh ENE 3.5 mph5.6 kmh 29.91 in1012.9 mb - 0.00 in0.0 mm 0.00 in0.0 mm
03:50 AM 80.8°F27.1°C 54.9°F12.7°C 41% Calm Calm -- 29.91 in1012.9 mb - 0.00 in0.0 mm 0.00 in0.0 mm
03:55 AM 80.8°F27.1°C 54.9°F12.7°C 41% 2.3 mph NE3.7 kmh NE 2.3 mph3.7 kmh 29.91 in1012.9 mb - 0.00 in0.0 mm 0.00 in0.0 mm
04:00 AM 80.8°F27.1°C 54.9°F12.7°C 41% 1.2 mph E1.9 kmh E -- 29.91 in1012.9 mb - 0.00 in0.0 mm 0.00 in0.0 mm
04:05 AM 80.6°F27.0°C 54.7°F12.6°C 41% 1.2 mph SSW1.9 kmh SSW 1.2 mph1.9 kmh 29.91 in1012.9 mb - 0.00 in0.0 mm 0.00 in0.0 mm
04:10 AM 80.4°F26.9°C 54.6°F12.6°C 41% 1.2 mph E1.9 kmh E 1.2 mph1.9 kmh 29.91 in1012.9 mb - 0.00 in0.0 mm 0.00 in0.0 mm
04:15 AM 80.4°F26.9°C 54.5°F12.5°C 41% Calm Calm -- 29.91 in1012.9 mb - 0.00 in0.0 mm 0.00 in0.0 mm
04:20 AM 80.2°F26.8°C 54.3°F12.4°C 41% Calm Calm -- 29.91 in1012.9 mb - 0.00 in0.0 mm 0.00 in0.0 mm
04:25 AM 80.1°F26.7°C 54.3°F12.4°C 41% Calm Calm -- 29.91 in1012.9 mb - 0.00 in0.0 mm 0.00 in0.0 mm
04:30 AM 80.2°F26.8°C 54.3°F12.4°C 41% 1.2 mph N1.9 kmh N 2.3 mph3.7 kmh 29.91 in1012.9 mb - 0.00 in0.0 mm 0.00 in0.0 mm
04:35 AM 80.1°F26.7°C 54.3°F12.4°C 41% Calm Calm -- 29.91 in1012.9 mb - 0.00 in0.0 mm 0.00 in0.0 mm
04:40 AM 80.1°F26.7°C 54.3°F12.4°C 41% Calm Calm -- 29.91 in1012.9 mb - 0.00 in0.0 mm 0.00 in0.0 mm
04:45 AM 79.9°F26.6°C 54.1°F12.3°C 41% Calm Calm -- 29.91 in1012.9 mb - 0.00 in0.0 mm 0.00 in0.0 mm
04:50 AM 79.9°F26.6°C 54.1°F12.3°C 41% Calm Calm -- 29.91 in1012.9 mb - 0.00 in0.0 mm 0.00 in0.0 mm
04:55 AM 79.9°F26.6°C 54.1°F12.3°C 41% Calm Calm -- 29.91 in1012.9 mb - 0.00 in0.0 mm 0.00 in0.0 mm
05:00 AM 79.9°F26.6°C 54.1°F12.3°C 41% Calm Calm -- 29.91 in1012.9 mb - 0.00 in0.0 mm 0.00 in0.0 mm
05:05 AM 79.6°F26.4°C 53.8°F12.1°C 41% Calm Calm 2.3 mph3.7 kmh 29.91 in1012.9 mb - 0.00 in0.0 mm 0.00 in0.0 mm
05:10 AM 79.3°F26.3°C 53.6°F12.0°C 41% 2.3 mph NE3.7 kmh NE 2.3 mph3.7 kmh 29.91 in1012.9 mb - 0.00 in0.0 mm 0.00 in0.0 mm
05:15 AM 79.3°F26.3°C 53.6°F12.0°C 41% 2.3 mph NE3.7 kmh NE 2.3 mph3.7 kmh 29.91 in1012.9 mb - 0.00 in0.0 mm 0.00 in0.0 mm
05:20 AM 79.2°F26.2°C 53.5°F11.9°C 41% 1.2 mph N1.9 kmh N 2.3 mph3.7 kmh 29.92 in1013.2 mb - 0.00 in0.0 mm 0.00 in0.0 mm
05:25 AM 79.0°F26.1°C 53.3°F11.8°C 41% 1.2 mph N1.9 kmh N 1.2 mph1.9 kmh 29.92 in1013.2 mb - 0.00 in0.0 mm 0.00 in0.0 mm
05:30 AM 79.0°F26.1°C 53.3°F11.8°C 41% Calm Calm -- 29.92 in1013.2 mb - 0.00 in0.0 mm 0.00 in0.0 mm
05:35 AM 78.8°F26.0°C 53.1°F11.7°C 41% Calm Calm -- 29.92 in1013.2 mb - 0.00 in0.0 mm 0.00 in0.0 mm
05:40 AM 78.6°F25.9°C 52.9°F11.6°C 41% Calm Calm -- 29.92 in1013.2 mb - 0.00 in0.0 mm 0.00 in0.0 mm
05:45 AM 78.3°F25.7°C 53.3°F11.8°C 42% 2.3 mph 3.7 kmh 3.5 mph5.6 kmh 29.93 in1013.5 mb - 0.00 in0.0 mm 0.00 in0.0 mm
05:50 AM 78.3°F25.7°C 53.3°F11.8°C 42% 1.2 mph NNE1.9 kmh NNE 1.2 mph1.9 kmh 29.93 in1013.5 mb - 0.00 in0.0 mm 0.00 in0.0 mm
05:55 AM 78.3°F25.7°C 53.3°F11.8°C 42% 1.2 mph N1.9 kmh N 1.2 mph1.9 kmh 29.93 in1013.5 mb - 0.00 in0.0 mm 0.00 in0.0 mm
06:00 AM 78.4°F25.8°C 53.4°F11.9°C 42% Calm Calm -- 29.93 in1013.5 mb - 0.00 in0.0 mm 0.00 in0.0 mm
06:05 AM 78.4°F25.8°C 53.4°F11.9°C 42% Calm Calm -- 29.93 in1013.5 mb - 0.00 in0.0 mm 0.00 in0.0 mm
06:10 AM 78.3°F25.7°C 53.3°F11.8°C 42% Calm Calm -- 29.94 in1013.9 mb - 0.00 in0.0 mm 0.00 in0.0 mm
06:15 AM 78.1°F25.6°C 53.2°F11.8°C 42% Calm Calm -- 29.94 in1013.9 mb - 0.00 in0.0 mm 0.00 in0.0 mm
06:20 AM 78.1°F25.6°C 53.8°F12.1°C 43% 2.3 mph N3.7 kmh N 3.5 mph5.6 kmh 29.93 in1013.5 mb - 0.00 in0.0 mm 0.00 in0.0 mm
06:25 AM 78.3°F25.7°C 54.0°F12.2°C 43% 1.2 mph NE1.9 kmh NE 1.2 mph1.9 kmh 29.93 in1013.5 mb - 0.00 in0.0 mm 0.00 in0.0 mm
06:30 AM 78.3°F25.7°C 54.0°F12.2°C 43% Calm Calm -- 29.93 in1013.5 mb - 0.00 in0.0 mm 0.00 in0.0 mm
06:35 AM 78.3°F25.7°C 54.0°F12.2°C 43% Calm Calm 1.2 mph1.9 kmh 29.93 in1013.5 mb - 0.00 in0.0 mm 0.00 in0.0 mm
06:40 AM 78.3°F25.7°C 54.0°F12.2°C 43% 1.2 mph NNE1.9 kmh NNE 1.2 mph1.9 kmh 29.93 in1013.5 mb - 0.00 in0.0 mm 0.00 in0.0 mm
06:45 AM 78.4°F25.8°C 54.0°F12.2°C 43% Calm Calm -- 29.94 in1013.9 mb - 0.00 in0.0 mm 0.00 in0.0 mm
06:50 AM 78.6°F25.9°C 54.2°F12.3°C 43% Calm Calm -- 29.94 in1013.9 mb - 0.00 in0.0 mm 0.00 in0.0 mm
06:55 AM 79.0°F26.1°C 54.6°F12.6°C 43% Calm Calm -- 29.94 in1013.9 mb - 0.00 in0.0 mm 0.00 in0.0 mm
07:00 AM 79.5°F26.4°C 55.0°F12.8°C 43% Calm Calm -- 29.94 in1013.9 mb - 0.00 in0.0 mm 0.00 in0.0 mm
07:05 AM 80.1°F26.7°C 55.6°F13.1°C 43% 1.2 mph W1.9 kmh W 1.2 mph1.9 kmh 29.94 in1013.9 mb - 0.00 in0.0 mm 0.00 in0.0 mm
07:10 AM 80.1°F26.7°C 55.6°F13.1°C 43% 2.3 mph N3.7 kmh N 4.6 mph7.4 kmh 29.95 in1014.2 mb - 0.00 in0.0 mm 0.00 in0.0 mm
07:15 AM 80.8°F27.1°C 55.6°F13.1°C 42% 2.3 mph N3.7 kmh N 4.6 mph7.4 kmh 29.95 in1014.2 mb - 0.00 in0.0 mm 0.00 in0.0 mm
07:20 AM 81.1°F27.3°C 55.1°F12.8°C 41% 3.5 mph N5.6 kmh N 4.6 mph7.4 kmh 29.96 in1014.6 mb - 0.00 in0.0 mm 0.00 in0.0 mm
07:25 AM 81.9°F27.7°C 55.8°F13.2°C 41% 2.3 mph NE3.7 kmh NE 2.3 mph3.7 kmh 29.96 in1014.6 mb - 0.00 in0.0 mm 0.00 in0.0 mm
07:30 AM 82.2°F27.9°C 55.5°F13.1°C 40% 1.2 mph NNW1.9 kmh NNW 1.2 mph1.9 kmh 29.96 in1014.6 mb - 0.00 in0.0 mm 0.00 in0.0 mm
07:35 AM 82.4°F28.0°C 55.7°F13.2°C 40% Calm Calm -- 29.96 in1014.6 mb - 0.00 in0.0 mm 0.00 in0.0 mm
07:40 AM 83.8°F28.8°C 55.5°F13.1°C 38% Calm Calm -- 29.96 in1014.6 mb - 0.00 in0.0 mm 0.00 in0.0 mm
07:45 AM 86.3°F30.2°C 56.9°F13.8°C 37% Calm Calm -- 29.96 in1014.6 mb - 0.00 in0.0 mm 0.00 in0.0 mm
07:50 AM 87.6°F30.9°C 56.5°F13.6°C 35% Calm Calm 1.2 mph1.9 kmh 29.96 in1014.6 mb - 0.00 in0.0 mm 0.00 in0.0 mm
07:55 AM 88.8°F31.6°C 56.8°F13.8°C 34% Calm Calm -- 29.96 in1014.6 mb - 0.00 in0.0 mm 0.00 in0.0 mm
08:00 AM 88.9°F31.6°C 56.9°F13.8°C 34% 1.2 mph SE1.9 kmh SE 2.3 mph3.7 kmh 29.96 in1014.6 mb - 0.00 in0.0 mm 0.00 in0.0 mm
08:05 AM 91.0°F32.8°C 57.0°F13.9°C 32% Calm Calm -- 29.96 in1014.6 mb - 0.00 in0.0 mm 0.00 in0.0 mm
08:10 AM 90.9°F32.7°C 57.8°F14.3°C 33% 1.2 mph S1.9 kmh S 2.3 mph3.7 kmh 29.96 in1014.6 mb - 0.00 in0.0 mm 0.00 in0.0 mm
08:15 AM 91.5°F33.1°C 57.4°F14.1°C 32% 1.2 mph S1.9 kmh S 2.3 mph3.7 kmh 29.96 in1014.6 mb - 0.00 in0.0 mm 0.00 in0.0 mm
08:20 AM 92.5°F33.6°C 57.5°F14.2°C 31% 1.2 mph S1.9 kmh S 2.3 mph3.7 kmh 29.96 in1014.6 mb - 0.00 in0.0 mm 0.00 in0.0 mm
08:25 AM 92.5°F33.6°C 57.5°F14.2°C 31% Calm Calm -- 29.96 in1014.6 mb - 0.00 in0.0 mm 0.00 in0.0 mm
08:30 AM 93.3°F34.1°C 58.1°F14.5°C 31% Calm Calm -- 29.96 in1014.6 mb - 0.00 in0.0 mm 0.00 in0.0 mm
08:35 AM 93.9°F34.4°C 57.8°F14.3°C 30% Calm Calm -- 29.97 in1014.9 mb - 0.00 in0.0 mm 0.00 in0.0 mm
08:40 AM 93.0°F33.9°C 57.9°F14.4°C 31% Calm Calm -- 29.97 in1014.9 mb - 0.00 in0.0 mm 0.00 in0.0 mm
08:45 AM 94.3°F34.6°C 58.1°F14.5°C 30% Calm Calm -- 29.97 in1014.9 mb - 0.00 in0.0 mm 0.00 in0.0 mm
08:50 AM 93.7°F34.3°C 57.6°F14.2°C 30% 3.5 mph S5.6 kmh S 4.6 mph7.4 kmh 29.97 in1014.9 mb - 0.00 in0.0 mm 0.00 in0.0 mm
08:55 AM 93.3°F34.1°C 57.2°F14.0°C 30% Calm Calm -- 29.97 in1014.9 mb - 0.00 in0.0 mm 0.00 in0.0 mm
09:00 AM 93.1°F33.9°C 57.0°F13.9°C 30% 3.5 mph SSE5.6 kmh SSE 2.3 mph3.7 kmh 29.97 in1014.9 mb - 0.00 in0.0 mm 0.00 in0.0 mm
09:05 AM 92.9°F33.8°C 57.8°F14.3°C 31% 2.3 mph SSE3.7 kmh SSE 3.5 mph5.6 kmh 29.97 in1014.9 mb - 0.00 in0.0 mm 0.00 in0.0 mm
09:10 AM 94.5°F34.7°C 58.3°F14.6°C 30% 2.3 mph SSE3.7 kmh SSE 3.5 mph5.6 kmh 29.97 in1014.9 mb - 0.00 in0.0 mm 0.00 in0.0 mm
09:40 AM 94.7°F34.8°C 57.5°F14.2°C 29% 2.3 mph SSE3.7 kmh SSE 2.3 mph3.7 kmh 29.98 in1015.2 mb - 0.00 in0.0 mm 0.00 in0.0 mm
09:45 AM 94.5°F34.7°C 58.3°F14.6°C 30% 2.3 mph SSW3.7 kmh SSW 2.3 mph3.7 kmh 29.98 in1015.2 mb - 0.00 in0.0 mm 0.00 in0.0 mm
09:50 AM 94.1°F34.5°C 57.0°F13.9°C 29% 2.3 mph S3.7 kmh S 3.5 mph5.6 kmh 29.98 in1015.2 mb - 0.00 in0.0 mm 0.00 in0.0 mm
09:55 AM 94.0°F34.4°C 58.7°F14.8°C 31% 1.2 mph NW1.9 kmh NW 1.2 mph1.9 kmh 29.98 in1015.2 mb - 0.00 in0.0 mm 0.00 in0.0 mm
10:00 AM 95.1°F35.1°C 57.9°F14.4°C 29% 2.3 mph S3.7 kmh S 4.6 mph7.4 kmh 29.98 in1015.2 mb - 0.00 in0.0 mm 0.00 in0.0 mm
10:05 AM 94.3°F34.6°C 57.2°F14.0°C 29% 1.2 mph S1.9 kmh S 1.2 mph1.9 kmh 29.98 in1015.2 mb - 0.00 in0.0 mm 0.00 in0.0 mm
10:10 AM 94.0°F34.4°C 56.9°F13.8°C 29% 1.2 mph SSW1.9 kmh SSW 1.2 mph1.9 kmh 29.98 in1015.2 mb - 0.00 in0.0 mm 0.00 in0.0 mm
10:15 AM 93.6°F34.2°C 57.5°F14.2°C 30% 1.2 mph SSE1.9 kmh SSE 1.2 mph1.9 kmh 29.98 in1015.2 mb - 0.00 in0.0 mm 0.00 in0.0 mm
10:20 AM 93.2°F34.0°C 57.1°F13.9°C 30% Calm Calm 3.5 mph5.6 kmh 29.98 in1015.2 mb - 0.00 in0.0 mm 0.00 in0.0 mm
10:25 AM 92.5°F33.6°C 57.5°F14.2°C 31% Calm Calm 2.3 mph3.7 kmh 29.98 in1015.2 mb - 0.00 in0.0 mm 0.00 in0.0 mm
10:30 AM 91.9°F33.3°C 57.0°F13.9°C 31% Calm Calm -- 29.98 in1015.2 mb - 0.00 in0.0 mm 0.00 in0.0 mm
10:35 AM 91.6°F33.1°C 56.7°F13.7°C 31% 1.2 mph SSW1.9 kmh SSW 4.6 mph7.4 kmh 29.98 in1015.2 mb - 0.00 in0.0 mm 0.00 in0.0 mm
10:40 AM 91.0°F32.8°C 57.0°F13.9°C 32% Calm Calm -- 29.98 in1015.2 mb - 0.00 in0.0 mm 0.00 in0.0 mm
10:45 AM 91.2°F32.9°C 57.2°F14.0°C 32% 2.3 mph SW3.7 kmh SW 3.5 mph5.6 kmh 29.98 in1015.2 mb - 0.00 in0.0 mm 0.00 in0.0 mm
10:50 AM 91.0°F32.8°C 57.1°F13.9°C 32% 3.5 mph S5.6 kmh S 3.5 mph5.6 kmh 29.98 in1015.2 mb - 0.00 in0.0 mm 0.00 in0.0 mm
10:55 AM 91.4°F33.0°C 57.4°F14.1°C 32% Calm Calm 4.6 mph7.4 kmh 29.98 in1015.2 mb - 0.00 in0.0 mm 0.00 in0.0 mm
11:00 AM 91.2°F32.9°C 57.2°F14.0°C 32% 2.3 mph S3.7 kmh S 3.5 mph5.6 kmh 29.98 in1015.2 mb - 0.00 in0.0 mm 0.00 in0.0 mm
11:05 AM 91.0°F32.8°C 57.0°F13.9°C 32% 2.3 mph SW3.7 kmh SW 2.3 mph3.7 kmh 29.98 in1015.2 mb - 0.00 in0.0 mm 0.00 in0.0 mm
11:10 AM 91.6°F33.1°C 57.5°F14.2°C 32% Calm Calm -- 29.97 in1014.9 mb - 0.00 in0.0 mm 0.00 in0.0 mm
11:15 AM 91.9°F33.3°C 57.8°F14.3°C 32% 3.5 mph SW5.6 kmh SW 3.5 mph5.6 kmh 29.97 in1014.9 mb - 0.00 in0.0 mm 0.00 in0.0 mm
11:20 AM 92.9°F33.8°C 57.8°F14.3°C 31% 3.5 mph S5.6 kmh S 3.5 mph5.6 kmh 29.97 in1014.9 mb - 0.00 in0.0 mm 0.00 in0.0 mm
11:25 AM 93.6°F34.2°C 58.4°F14.7°C 31% 3.5 mph SW5.6 kmh SW 3.5 mph5.6 kmh 29.97 in1014.9 mb - 0.00 in0.0 mm 0.00 in0.0 mm
11:30 AM 93.6°F34.2°C 57.5°F14.2°C 30% 5.8 mph S9.3 kmh S 6.9 mph11.1 kmh 29.97 in1014.9 mb - 0.00 in0.0 mm 0.00 in0.0 mm
11:35 AM 93.7°F34.3°C 57.6°F14.2°C 30% 3.5 mph SSE5.6 kmh SSE 4.6 mph7.4 kmh 29.97 in1014.9 mb - 0.00 in0.0 mm 0.00 in0.0 mm
11:40 AM 94.3°F34.6°C 58.1°F14.5°C 30% 4.6 mph S7.4 kmh S 8.1 mph13.0 kmh 29.97 in1014.9 mb - 0.00 in0.0 mm 0.00 in0.0 mm
11:45 AM 94.4°F34.7°C 57.3°F14.1°C 29% 1.2 mph S1.9 kmh S 4.6 mph7.4 kmh 29.97 in1014.9 mb - 0.00 in0.0 mm 0.00 in0.0 mm
11:50 AM 95.5°F35.3°C 58.2°F14.6°C 29% 2.3 mph NNE3.7 kmh NNE 3.5 mph5.6 kmh 29.97 in1014.9 mb - 0.00 in0.0 mm 0.00 in0.0 mm
11:55 AM 95.0°F35.0°C 58.7°F14.8°C 30% Calm Calm -- 29.97 in1014.9 mb - 0.00 in0.0 mm 0.00 in0.0 mm
12:00 PM 97.5°F36.4°C 58.9°F14.9°C 28% 2.3 mph NW3.7 kmh NW 2.3 mph3.7 kmh 29.96 in1014.6 mb - 0.00 in0.0 mm 0.00 in0.0 mm
12:05 PM 97.8°F36.6°C 59.2°F15.1°C 28% 2.3 mph SW3.7 kmh SW 5.8 mph9.3 kmh 29.96 in1014.6 mb - 0.00 in0.0 mm 0.00 in0.0 mm
12:10 PM 96.3°F35.7°C 57.9°F14.4°C 28% 1.2 mph WSW1.9 kmh WSW 1.2 mph1.9 kmh 29.96 in1014.6 mb - 0.00 in0.0 mm 0.00 in0.0 mm
12:15 PM 97.7°F36.5°C 58.1°F14.5°C 27% Calm Calm -- 29.96 in1014.6 mb - 0.00 in0.0 mm 0.00 in0.0 mm
12:20 PM 98.2°F36.8°C 58.5°F14.7°C 27% 3.5 mph NNE5.6 kmh NNE 4.6 mph7.4 kmh 29.96 in1014.6 mb - 0.00 in0.0 mm 0.00 in0.0 mm
12:25 PM 98.4°F36.9°C 58.7°F14.8°C 27% 3.5 mph S5.6 kmh S 4.6 mph7.4 kmh 29.96 in1014.6 mb - 0.00 in0.0 mm 0.00 in0.0 mm
12:30 PM 97.7°F36.5°C 58.1°F14.5°C 27% 4.6 mph S7.4 kmh S 6.9 mph11.1 kmh 29.96 in1014.6 mb - 0.00 in0.0 mm 0.00 in0.0 mm
12:35 PM 98.1°F36.7°C 58.4°F14.7°C 27% 1.2 mph SSE1.9 kmh SSE 4.6 mph7.4 kmh 29.96 in1014.6 mb - 0.00 in0.0 mm 0.00 in0.0 mm
12:40 PM 98.6°F37.0°C 58.8°F14.9°C 27% 4.6 mph S7.4 kmh S 8.1 mph13.0 kmh 29.96 in1014.6 mb - 0.00 in0.0 mm 0.00 in0.0 mm
12:45 PM 97.2°F36.2°C 57.6°F14.2°C 27% 2.3 mph WNW3.7 kmh WNW 1.2 mph1.9 kmh 29.95 in1014.2 mb - 0.00 in0.0 mm 0.00 in0.0 mm
12:50 PM 97.7°F36.5°C 58.0°F14.4°C 27% 3.5 mph S5.6 kmh S 5.8 mph9.3 kmh 29.95 in1014.2 mb - 0.00 in0.0 mm 0.00 in0.0 mm
12:55 PM 98.5°F36.9°C 58.8°F14.9°C 27% 4.6 mph SSW7.4 kmh SSW 5.8 mph9.3 kmh 29.95 in1014.2 mb - 0.00 in0.0 mm 0.00 in0.0 mm
01:00 PM 97.8°F36.6°C 58.2°F14.6°C 27% 2.3 mph SE3.7 kmh SE 2.3 mph3.7 kmh 29.95 in1014.2 mb - 0.00 in0.0 mm 0.00 in0.0 mm
01:05 PM 98.5°F36.9°C 58.8°F14.9°C 27% 2.3 mph SW3.7 kmh SW 5.8 mph9.3 kmh 29.95 in1014.2 mb - 0.00 in0.0 mm 0.00 in0.0 mm
01:10 PM 98.9°F37.2°C 58.1°F14.5°C 26% 3.5 mph SE5.6 kmh SE 5.8 mph9.3 kmh 29.95 in1014.2 mb - 0.00 in0.0 mm 0.00 in0.0 mm
01:15 PM 98.2°F36.8°C 58.5°F14.7°C 27% 2.3 mph WSW3.7 kmh WSW 3.5 mph5.6 kmh 29.95 in1014.2 mb - 0.00 in0.0 mm 0.00 in0.0 mm
01:20 PM 98.8°F37.1°C 59.0°F15.0°C 27% 1.2 mph S1.9 kmh S 4.6 mph7.4 kmh 29.95 in1014.2 mb - 0.00 in0.0 mm 0.00 in0.0 mm
01:25 PM 99.9°F37.7°C 58.9°F14.9°C 26% 3.5 mph WSW5.6 kmh WSW 4.6 mph7.4 kmh 29.95 in1014.2 mb - 0.00 in0.0 mm 0.00 in0.0 mm
01:30 PM 99.9°F37.7°C 58.9°F14.9°C 26% 3.5 mph SE5.6 kmh SE 3.5 mph5.6 kmh 29.95 in1014.2 mb - 0.00 in0.0 mm 0.00 in0.0 mm
01:35 PM 100.1°F37.8°C 58.0°F14.4°C 25% 2.3 mph WSW3.7 kmh WSW 6.9 mph11.1 kmh 29.94 in1013.9 mb - 0.00 in0.0 mm 0.00 in0.0 mm
01:40 PM 100.6°F38.1°C 58.4°F14.7°C 25% 3.5 mph NNE5.6 kmh NNE 5.8 mph9.3 kmh 29.94 in1013.9 mb - 0.00 in0.0 mm 0.00 in0.0 mm
01:45 PM 100.3°F37.9°C 58.1°F14.5°C 25% 5.8 mph S9.3 kmh S 6.9 mph11.1 kmh 29.94 in1013.9 mb - 0.00 in0.0 mm 0.00 in0.0 mm
01:50 PM 99.9°F37.7°C 57.8°F14.3°C 25% 4.6 mph S7.4 kmh S 4.6 mph7.4 kmh 29.94 in1013.9 mb - 0.00 in0.0 mm 0.00 in0.0 mm
01:55 PM 99.5°F37.5°C 58.5°F14.7°C 26% 3.5 mph W5.6 kmh W 4.6 mph7.4 kmh 29.94 in1013.9 mb - 0.00 in0.0 mm 0.00 in0.0 mm
02:00 PM 100.3°F37.9°C 58.1°F14.5°C 25% 2.3 mph S3.7 kmh S 5.8 mph9.3 kmh 29.94 in1013.9 mb - 0.00 in0.0 mm 0.00 in0.0 mm
02:05 PM 99.3°F37.4°C 58.3°F14.6°C 26% 2.3 mph WSW3.7 kmh WSW 2.3 mph3.7 kmh 29.94 in1013.9 mb - 0.00 in0.0 mm 0.00 in0.0 mm
02:10 PM 100.4°F38.0°C 58.2°F14.6°C 25% 5.8 mph S9.3 kmh S 5.8 mph9.3 kmh 29.93 in1013.5 mb - 0.00 in0.0 mm 0.00 in0.0 mm
02:15 PM 101.5°F38.6°C 59.1°F15.1°C 25% 4.6 mph S7.4 kmh S 4.6 mph7.4 kmh 29.93 in1013.5 mb - 0.00 in0.0 mm 0.00 in0.0 mm
02:20 PM 101.0°F38.3°C 58.7°F14.8°C 25% Calm Calm 5.8 mph9.3 kmh 29.93 in1013.5 mb - 0.00 in0.0 mm 0.00 in0.0 mm
02:25 PM 101.4°F38.6°C 59.0°F15.0°C 25% 5.8 mph W9.3 kmh W 5.8 mph9.3 kmh 29.93 in1013.5 mb - 0.00 in0.0 mm 0.00 in0.0 mm
02:30 PM 100.4°F38.0°C 58.2°F14.6°C 25% 4.6 mph S7.4 kmh S 6.9 mph11.1 kmh 29.93 in1013.5 mb - 0.00 in0.0 mm 0.00 in0.0 mm
02:35 PM 101.2°F38.4°C 58.8°F14.9°C 25% 3.5 mph S5.6 kmh S 5.8 mph9.3 kmh 29.92 in1013.2 mb - 0.00 in0.0 mm 0.00 in0.0 mm
02:40 PM 100.9°F38.3°C 57.5°F14.2°C 24% 3.5 mph S5.6 kmh S 4.6 mph7.4 kmh 29.92 in1013.2 mb - 0.00 in0.0 mm 0.00 in0.0 mm
02:45 PM 102.2°F39.0°C 58.6°F14.8°C 24% 4.6 mph SW7.4 kmh SW 6.9 mph11.1 kmh 29.92 in1013.2 mb - 0.00 in0.0 mm 0.00 in0.0 mm
02:50 PM 101.0°F38.3°C 58.7°F14.8°C 25% 2.3 mph NE3.7 kmh NE 5.8 mph9.3 kmh 29.92 in1013.2 mb - 0.00 in0.0 mm 0.00 in0.0 mm
02:55 PM 100.8°F38.2°C 57.4°F14.1°C 24% 8.1 mph S13.0 kmh S 6.9 mph11.1 kmh 29.92 in1013.2 mb - 0.00 in0.0 mm 0.00 in0.0 mm
03:00 PM 99.4°F37.4°C 57.4°F14.1°C 25% 3.5 mph W5.6 kmh W 4.6 mph7.4 kmh 29.92 in1013.2 mb - 0.00 in0.0 mm 0.00 in0.0 mm
03:05 PM 100.5°F38.1°C 58.3°F14.6°C 25% 4.6 mph S7.4 kmh S 3.5 mph5.6 kmh 29.92 in1013.2 mb - 0.00 in0.0 mm 0.00 in0.0 mm
03:10 PM 101.5°F38.6°C 59.1°F15.1°C 25% 5.8 mph SSW9.3 kmh SSW 6.9 mph11.1 kmh 29.91 in1012.9 mb - 0.00 in0.0 mm 0.00 in0.0 mm
03:15 PM 100.4°F38.0°C 58.2°F14.6°C 25% 2.3 mph SW3.7 kmh SW 5.8 mph9.3 kmh 29.91 in1012.9 mb - 0.00 in0.0 mm 0.00 in0.0 mm
03:20 PM 101.5°F38.6°C 59.1°F15.1°C 25% 6.9 mph SSW11.1 kmh SSW 8.1 mph13.0 kmh 29.91 in1012.9 mb - 0.00 in0.0 mm 0.00 in0.0 mm
03:25 PM 99.6°F37.6°C 57.6°F14.2°C 25% 2.3 mph S3.7 kmh S 2.3 mph3.7 kmh 29.91 in1012.9 mb - 0.00 in0.0 mm 0.00 in0.0 mm
03:30 PM 100.9°F38.3°C 58.7°F14.8°C 25% 3.5 mph SW5.6 kmh SW 8.1 mph13.0 kmh 29.91 in1012.9 mb - 0.00 in0.0 mm 0.00 in0.0 mm
03:35 PM 100.7°F38.2°C 58.5°F14.7°C 25% 4.6 mph SSW7.4 kmh SSW 5.8 mph9.3 kmh 29.91 in1012.9 mb - 0.00 in0.0 mm 0.00 in0.0 mm
03:40 PM 100.0°F37.8°C 57.9°F14.4°C 25% 3.5 mph E5.6 kmh E 4.6 mph7.4 kmh 29.91 in1012.9 mb - 0.00 in0.0 mm 0.00 in0.0 mm
03:45 PM 101.1°F38.4°C 58.8°F14.9°C 25% 2.3 mph SSE3.7 kmh SSE 8.1 mph13.0 kmh 29.90 in1012.5 mb - 0.00 in0.0 mm 0.00 in0.0 mm
03:50 PM 101.6°F38.7°C 59.2°F15.1°C 25% 4.6 mph SW7.4 kmh SW 4.6 mph7.4 kmh 29.90 in1012.5 mb - 0.00 in0.0 mm 0.00 in0.0 mm
03:55 PM 100.4°F38.0°C 58.2°F14.6°C 25% 2.3 mph SE3.7 kmh SE 2.3 mph3.7 kmh 29.90 in1012.5 mb - 0.00 in0.0 mm 0.00 in0.0 mm
04:00 PM 101.1°F38.4°C 58.8°F14.9°C 25% 4.6 mph SSW7.4 kmh SSW 6.9 mph11.1 kmh 29.90 in1012.5 mb - 0.00 in0.0 mm 0.00 in0.0 mm
04:05 PM 100.0°F37.8°C 57.9°F14.4°C 25% 6.9 mph WSW11.1 kmh WSW 8.1 mph13.0 kmh 29.90 in1012.5 mb - 0.00 in0.0 mm 0.00 in0.0 mm
04:10 PM 100.3°F37.9°C 58.1°F14.5°C 25% 3.5 mph SSW5.6 kmh SSW 4.6 mph7.4 kmh 29.90 in1012.5 mb - 0.00 in0.0 mm 0.00 in0.0 mm
04:15 PM 100.5°F38.1°C 58.3°F14.6°C 25% 4.6 mph S7.4 kmh S 9.2 mph14.8 kmh 29.90 in1012.5 mb - 0.00 in0.0 mm 0.00 in0.0 mm
04:20 PM 99.1°F37.3°C 57.1°F13.9°C 25% 4.6 mph W7.4 kmh W 4.6 mph7.4 kmh 29.90 in1012.5 mb - 0.00 in0.0 mm 0.00 in0.0 mm
04:25 PM 99.9°F37.7°C 57.8°F14.3°C 25% 4.6 mph S7.4 kmh S 3.5 mph5.6 kmh 29.90 in1012.5 mb - 0.00 in0.0 mm 0.00 in0.0 mm
04:30 PM 99.1°F37.3°C 57.1°F13.9°C 25% 3.5 mph WNW5.6 kmh WNW 4.6 mph7.4 kmh 29.90 in1012.5 mb - 0.00 in0.0 mm 0.00 in0.0 mm
04:35 PM 98.9°F37.2°C 56.9°F13.8°C 25% 2.3 mph N3.7 kmh N 2.3 mph3.7 kmh 29.90 in1012.5 mb - 0.00 in0.0 mm 0.00 in0.0 mm
04:40 PM 99.6°F37.6°C 56.4°F13.6°C 24% 3.5 mph W5.6 kmh W 4.6 mph7.4 kmh 29.90 in1012.5 mb - 0.00 in0.0 mm 0.00 in0.0 mm
04:45 PM 99.5°F37.5°C 57.4°F14.1°C 25% 3.5 mph W5.6 kmh W 4.6 mph7.4 kmh 29.90 in1012.5 mb - 0.00 in0.0 mm 0.00 in0.0 mm
04:50 PM 99.0°F37.2°C 58.1°F14.5°C 26% 4.6 mph W7.4 kmh W 5.8 mph9.3 kmh 29.90 in1012.5 mb - 0.00 in0.0 mm 0.00 in0.0 mm
04:55 PM 98.5°F36.9°C 58.7°F14.8°C 27% 4.6 mph W7.4 kmh W 4.6 mph7.4 kmh 29.90 in1012.5 mb - 0.00 in0.0 mm 0.00 in0.0 mm
05:00 PM 98.4°F36.9°C 58.7°F14.8°C 27% 4.6 mph WNW7.4 kmh WNW 5.8 mph9.3 kmh 29.90 in1012.5 mb - 0.00 in0.0 mm 0.00 in0.0 mm
05:05 PM 98.2°F36.8°C 58.5°F14.7°C 27% 3.5 mph N5.6 kmh N 3.5 mph5.6 kmh 29.90 in1012.5 mb - 0.00 in0.0 mm 0.00 in0.0 mm
05:10 PM 98.2°F36.8°C 58.5°F14.7°C 27% 4.6 mph WSW7.4 kmh WSW 4.6 mph7.4 kmh 29.89 in1012.2 mb - 0.00 in0.0 mm 0.00 in0.0 mm
05:15 PM 98.1°F36.7°C 58.4°F14.7°C 27% 4.6 mph NW7.4 kmh NW 4.6 mph7.4 kmh 29.89 in1012.2 mb - 0.00 in0.0 mm 0.00 in0.0 mm
05:20 PM 97.9°F36.6°C 58.2°F14.6°C 27% 3.5 mph W5.6 kmh W 4.6 mph7.4 kmh 29.89 in1012.2 mb - 0.00 in0.0 mm 0.00 in0.0 mm
05:25 PM 97.5°F36.4°C 57.9°F14.4°C 27% 5.8 mph NW9.3 kmh NW 5.8 mph9.3 kmh 29.89 in1012.2 mb - 0.00 in0.0 mm 0.00 in0.0 mm
05:30 PM 97.5°F36.4°C 57.9°F14.4°C 27% 3.5 mph NNW5.6 kmh NNW 5.8 mph9.3 kmh 29.89 in1012.2 mb - 0.00 in0.0 mm 0.00 in0.0 mm
05:35 PM 97.3°F36.3°C 57.7°F14.3°C 27% 4.6 mph NNW7.4 kmh NNW 5.8 mph9.3 kmh 29.89 in1012.2 mb - 0.00 in0.0 mm 0.00 in0.0 mm
05:40 PM 96.8°F36.0°C 57.3°F14.1°C 27% 5.8 mph N9.3 kmh N 5.8 mph9.3 kmh 29.89 in1012.2 mb - 0.00 in0.0 mm 0.00 in0.0 mm
05:45 PM 96.4°F35.8°C 57.0°F13.9°C 27% 5.8 mph N9.3 kmh N 5.8 mph9.3 kmh 29.89 in1012.2 mb - 0.00 in0.0 mm 0.00 in0.0 mm
05:50 PM 96.4°F35.8°C 57.0°F13.9°C 27% 4.6 mph WNW7.4 kmh WNW 5.8 mph9.3 kmh 29.89 in1012.2 mb - 0.00 in0.0 mm 0.00 in0.0 mm
05:55 PM 96.4°F35.8°C 57.0°F13.9°C 27% 3.5 mph NNW5.6 kmh NNW 3.5 mph5.6 kmh 29.89 in1012.2 mb - 0.00 in0.0 mm 0.00 in0.0 mm
06:00 PM 96.3°F35.7°C 56.9°F13.8°C 27% 5.8 mph NE9.3 kmh NE 5.8 mph9.3 kmh 29.89 in1012.2 mb - 0.00 in0.0 mm 0.00 in0.0 mm
06:05 PM 96.3°F35.7°C 57.9°F14.4°C 28% 4.6 mph W7.4 kmh W 4.6 mph7.4 kmh 29.89 in1012.2 mb - 0.00 in0.0 mm 0.00 in0.0 mm
06:10 PM 96.3°F35.7°C 57.9°F14.4°C 28% 3.5 mph WNW5.6 kmh WNW 4.6 mph7.4 kmh 29.89 in1012.2 mb - 0.00 in0.0 mm 0.00 in0.0 mm
06:15 PM 96.1°F35.6°C 57.7°F14.3°C 28% 2.3 mph N3.7 kmh N 4.6 mph7.4 kmh 29.89 in1012.2 mb - 0.00 in0.0 mm 0.00 in0.0 mm
06:20 PM 96.1°F35.6°C 57.7°F14.3°C 28% 2.3 mph W3.7 kmh W 2.3 mph3.7 kmh 29.89 in1012.2 mb - 0.00 in0.0 mm 0.00 in0.0 mm
06:25 PM 96.1°F35.6°C 57.7°F14.3°C 28% 3.5 mph WNW5.6 kmh WNW 4.6 mph7.4 kmh 29.89 in1012.2 mb - 0.00 in0.0 mm 0.00 in0.0 mm
06:30 PM 95.9°F35.5°C 57.6°F14.2°C 28% 3.5 mph NNW5.6 kmh NNW 2.3 mph3.7 kmh 29.89 in1012.2 mb - 0.00 in0.0 mm 0.00 in0.0 mm
06:35 PM 95.7°F35.4°C 57.4°F14.1°C 28% 3.5 mph W5.6 kmh W 4.6 mph7.4 kmh 29.89 in1012.2 mb - 0.00 in0.0 mm 0.00 in0.0 mm
06:40 PM 95.5°F35.3°C 57.2°F14.0°C 28% 3.5 mph W5.6 kmh W 4.6 mph7.4 kmh 29.89 in1012.2 mb - 0.00 in0.0 mm 0.00 in0.0 mm
06:45 PM 95.4°F35.2°C 58.1°F14.5°C 29% 3.5 mph NNW5.6 kmh NNW 3.5 mph5.6 kmh 29.89 in1012.2 mb - 0.00 in0.0 mm 0.00 in0.0 mm
06:50 PM 95.4°F35.2°C 58.1°F14.5°C 29% 2.3 mph WSW3.7 kmh WSW 3.5 mph5.6 kmh 29.89 in1012.2 mb - 0.00 in0.0 mm 0.00 in0.0 mm
06:55 PM 95.0°F35.0°C 57.8°F14.3°C 29% 3.5 mph W5.6 kmh W 3.5 mph5.6 kmh 29.89 in1012.2 mb - 0.00 in0.0 mm 0.00 in0.0 mm
07:00 PM 94.6°F34.8°C 57.5°F14.2°C 29% 3.5 mph NW5.6 kmh NW 3.5 mph5.6 kmh 29.90 in1012.5 mb - 0.00 in0.0 mm 0.00 in0.0 mm
07:05 PM 94.4°F34.7°C 57.3°F14.1°C 29% 3.5 mph NW5.6 kmh NW 5.8 mph9.3 kmh 29.90 in1012.5 mb - 0.00 in0.0 mm 0.00 in0.0 mm
07:10 PM 94.1°F34.5°C 57.0°F13.9°C 29% 4.6 mph N7.4 kmh N 6.9 mph11.1 kmh 29.90 in1012.5 mb - 0.00 in0.0 mm 0.00 in0.0 mm
07:15 PM 93.6°F34.2°C 56.5°F13.6°C 29% 9.2 mph N14.8 kmh N 10.4 mph16.7 kmh 29.90 in1012.5 mb - 0.00 in0.0 mm 0.00 in0.0 mm
07:20 PM 93.2°F34.0°C 56.2°F13.4°C 29% 8.1 mph N13.0 kmh N 9.2 mph14.8 kmh 29.91 in1012.9 mb - 0.00 in0.0 mm 0.00 in0.0 mm
07:25 PM 93.2°F34.0°C 56.2°F13.4°C 29% 8.1 mph NNW13.0 kmh NNW 8.1 mph13.0 kmh 29.91 in1012.9 mb - 0.00 in0.0 mm 0.00 in0.0 mm
07:30 PM 92.8°F33.8°C 55.9°F13.3°C 29% 8.1 mph N13.0 kmh N 10.4 mph16.7 kmh 29.91 in1012.9 mb - 0.00 in0.0 mm 0.00 in0.0 mm
07:35 PM 92.5°F33.6°C 55.6°F13.1°C 29% 8.1 mph NE13.0 kmh NE 10.4 mph16.7 kmh 29.91 in1012.9 mb - 0.00 in0.0 mm 0.00 in0.0 mm
07:40 PM 92.4°F33.6°C 55.5°F13.1°C 29% 8.1 mph N13.0 kmh N 12.7 mph20.4 kmh 29.91 in1012.9 mb - 0.00 in0.0 mm 0.00 in0.0 mm
07:45 PM 92.1°F33.4°C 55.3°F12.9°C 29% 8.1 mph NE13.0 kmh NE 11.5 mph18.5 kmh 29.91 in1012.9 mb - 0.00 in0.0 mm 0.00 in0.0 mm
07:50 PM 91.9°F33.3°C 55.1°F12.8°C 29% 9.2 mph NNE14.8 kmh NNE 10.4 mph16.7 kmh 29.91 in1012.9 mb - 0.00 in0.0 mm 0.00 in0.0 mm
07:55 PM 91.8°F33.2°C 55.0°F12.8°C 29% 6.9 mph NNE11.1 kmh NNE 9.2 mph14.8 kmh 29.91 in1012.9 mb - 0.00 in0.0 mm 0.00 in0.0 mm
08:00 PM 91.6°F33.1°C 54.8°F12.7°C 29% 8.1 mph NE13.0 kmh NE 8.1 mph13.0 kmh 29.92 in1013.2 mb - 0.00 in0.0 mm 0.00 in0.0 mm
08:05 PM 91.4°F33.0°C 54.7°F12.6°C 29% 6.9 mph N11.1 kmh N 8.1 mph13.0 kmh 29.92 in1013.2 mb - 0.00 in0.0 mm 0.00 in0.0 mm
08:10 PM 91.4°F33.0°C 54.7°F12.6°C 29% 6.9 mph NE11.1 kmh NE 8.1 mph13.0 kmh 29.92 in1013.2 mb - 0.00 in0.0 mm 0.00 in0.0 mm
08:15 PM 91.2°F32.9°C 54.5°F12.5°C 29% 6.9 mph NNE11.1 kmh NNE 8.1 mph13.0 kmh 29.92 in1013.2 mb - 0.00 in0.0 mm 0.00 in0.0 mm
08:20 PM 91.0°F32.8°C 55.3°F12.9°C 30% 6.9 mph N11.1 kmh N 9.2 mph14.8 kmh 29.93 in1013.5 mb - 0.00 in0.0 mm 0.00 in0.0 mm
08:25 PM 91.0°F32.8°C 55.3°F12.9°C 30% 8.1 mph NNE13.0 kmh NNE 9.2 mph14.8 kmh 29.93 in1013.5 mb - 0.00 in0.0 mm 0.00 in0.0 mm
08:30 PM 91.0°F32.8°C 55.3°F12.9°C 30% 6.9 mph NNW11.1 kmh NNW 6.9 mph11.1 kmh 29.93 in1013.5 mb - 0.00 in0.0 mm 0.00 in0.0 mm
08:35 PM 91.0°F32.8°C 55.3°F12.9°C 30% 5.8 mph N9.3 kmh N 6.9 mph11.1 kmh 29.93 in1013.5 mb - 0.00 in0.0 mm 0.00 in0.0 mm
08:40 PM 90.9°F32.7°C 55.2°F12.9°C 30% 6.9 mph NE11.1 kmh NE 10.4 mph16.7 kmh 29.93 in1013.5 mb - 0.00 in0.0 mm 0.00 in0.0 mm
08:45 PM 90.9°F32.7°C 55.2°F12.9°C 30% 9.2 mph NNE14.8 kmh NNE 10.4 mph16.7 kmh 29.93 in1013.5 mb - 0.00 in0.0 mm 0.00 in0.0 mm
08:50 PM 90.7°F32.6°C 55.0°F12.8°C 30% 8.1 mph NE13.0 kmh NE 10.4 mph16.7 kmh 29.93 in1013.5 mb - 0.00 in0.0 mm 0.00 in0.0 mm
08:55 PM 90.7°F32.6°C 55.0°F12.8°C 30% 8.1 mph NNE13.0 kmh NNE 8.1 mph13.0 kmh 29.93 in1013.5 mb - 0.00 in0.0 mm 0.00 in0.0 mm
09:00 PM 90.7°F32.6°C 55.0°F12.8°C 30% 9.2 mph E14.8 kmh E 9.2 mph14.8 kmh 29.93 in1013.5 mb - 0.00 in0.0 mm 0.00 in0.0 mm
09:05 PM 90.6°F32.6°C 54.9°F12.7°C 30% 10.4 mph NW16.7 kmh NW 11.5 mph18.5 kmh 29.93 in1013.5 mb - 0.00 in0.0 mm 0.00 in0.0 mm
09:10 PM 90.3°F32.4°C 54.7°F12.6°C 30% 6.9 mph NNE11.1 kmh NNE 8.1 mph13.0 kmh 29.93 in1013.5 mb - 0.00 in0.0 mm 0.00 in0.0 mm
09:15 PM 90.3°F32.4°C 54.7°F12.6°C 30% 8.1 mph NE13.0 kmh NE 10.4 mph16.7 kmh 29.93 in1013.5 mb - 0.00 in0.0 mm 0.00 in0.0 mm
09:20 PM 90.3°F32.4°C 54.7°F12.6°C 30% 9.2 mph NNE14.8 kmh NNE 11.5 mph18.5 kmh 29.93 in1013.5 mb - 0.00 in0.0 mm 0.00 in0.0 mm
09:25 PM 90.1°F32.3°C 54.5°F12.5°C 30% 8.1 mph N13.0 kmh N 9.2 mph14.8 kmh 29.93 in1013.5 mb - 0.00 in0.0 mm 0.00 in0.0 mm
09:30 PM 90.1°F32.3°C 54.5°F12.5°C 30% 11.5 mph NNE18.5 kmh NNE 11.5 mph18.5 kmh 29.93 in1013.5 mb - 0.00 in0.0 mm 0.00 in0.0 mm
09:35 PM 90.1°F32.3°C 54.5°F12.5°C 30% 8.1 mph N13.0 kmh N 8.1 mph13.0 kmh 29.93 in1013.5 mb - 0.00 in0.0 mm 0.00 in0.0 mm
09:40 PM 90.0°F32.2°C 54.4°F12.4°C 30% 9.2 mph NNE14.8 kmh NNE 11.5 mph18.5 kmh 29.93 in1013.5 mb - 0.00 in0.0 mm 0.00 in0.0 mm
09:45 PM 90.0°F32.2°C 54.4°F12.4°C 30% 8.1 mph NNW13.0 kmh NNW 9.2 mph14.8 kmh 29.93 in1013.5 mb - 0.00 in0.0 mm 0.00 in0.0 mm
09:50 PM 89.8°F32.1°C 54.2°F12.3°C 30% 5.8 mph N9.3 kmh N 8.1 mph13.0 kmh 29.93 in1013.5 mb - 0.00 in0.0 mm 0.00 in0.0 mm
09:55 PM 89.8°F32.1°C 54.2°F12.3°C 30% 9.2 mph NW14.8 kmh NW 12.7 mph20.4 kmh 29.93 in1013.5 mb - 0.00 in0.0 mm 0.00 in0.0 mm
10:00 PM 89.8°F32.1°C 54.2°F12.3°C 30% 8.1 mph NE13.0 kmh NE 11.5 mph18.5 kmh 29.94 in1013.9 mb - 0.00 in0.0 mm 0.00 in0.0 mm
10:05 PM 89.6°F32.0°C 55.0°F12.8°C 31% 9.2 mph NNE14.8 kmh NNE 10.4 mph16.7 kmh 29.94 in1013.9 mb - 0.00 in0.0 mm 0.00 in0.0 mm
10:10 PM 89.6°F32.0°C 55.0°F12.8°C 31% 10.4 mph NNE16.7 kmh NNE 10.4 mph16.7 kmh 29.94 in1013.9 mb - 0.00 in0.0 mm 0.00 in0.0 mm
10:15 PM 89.6°F32.0°C 55.0°F12.8°C 31% 9.2 mph NNE14.8 kmh NNE 10.4 mph16.7 kmh 29.94 in1013.9 mb - 0.00 in0.0 mm 0.00 in0.0 mm
10:20 PM 89.6°F32.0°C 55.0°F12.8°C 31% 8.1 mph NNE13.0 kmh NNE 10.4 mph16.7 kmh 29.94 in1013.9 mb - 0.00 in0.0 mm 0.00 in0.0 mm
10:25 PM 89.6°F32.0°C 55.0°F12.8°C 31% 9.2 mph NNE14.8 kmh NNE 9.2 mph14.8 kmh 29.94 in1013.9 mb - 0.00 in0.0 mm 0.00 in0.0 mm
10:30 PM 89.4°F31.9°C 54.8°F12.7°C 31% 11.5 mph N18.5 kmh N 13.8 mph22.2 kmh 29.94 in1013.9 mb - 0.00 in0.0 mm 0.00 in0.0 mm
10:35 PM 89.4°F31.9°C 54.8°F12.7°C 31% 9.2 mph NNW14.8 kmh NNW 9.2 mph14.8 kmh 29.94 in1013.9 mb - 0.00 in0.0 mm 0.00 in0.0 mm
10:40 PM 89.2°F31.8°C 54.6°F12.6°C 31% 8.1 mph NNE13.0 kmh NNE 9.2 mph14.8 kmh 29.94 in1013.9 mb - 0.00 in0.0 mm 0.00 in0.0 mm
10:45 PM 89.2°F31.8°C 54.6°F12.6°C 31% 9.2 mph NE14.8 kmh NE 13.8 mph22.2 kmh 29.94 in1013.9 mb - 0.00 in0.0 mm 0.00 in0.0 mm
10:50 PM 89.1°F31.7°C 54.5°F12.5°C 31% 6.9 mph N11.1 kmh N 13.8 mph22.2 kmh 29.94 in1013.9 mb - 0.00 in0.0 mm 0.00 in0.0 mm
10:55 PM 88.9°F31.6°C 54.4°F12.4°C 31% 10.4 mph NE16.7 kmh NE 11.5 mph18.5 kmh 29.94 in1013.9 mb - 0.00 in0.0 mm 0.00 in0.0 mm
11:00 PM 88.9°F31.6°C 54.4°F12.4°C 31% 9.2 mph NNE14.8 kmh NNE 10.4 mph16.7 kmh 29.94 in1013.9 mb - 0.00 in0.0 mm 0.00 in0.0 mm
11:05 PM 88.9°F31.6°C 54.4°F12.4°C 31% 8.1 mph NNE13.0 kmh NNE 8.1 mph13.0 kmh 29.94 in1013.9 mb - 0.00 in0.0 mm 0.00 in0.0 mm
11:10 PM 88.5°F31.4°C 54.9°F12.7°C 32% 8.1 mph NNE13.0 kmh NNE 12.7 mph20.4 kmh 29.94 in1013.9 mb - 0.00 in0.0 mm 0.00 in0.0 mm
11:15 PM 88.5°F31.4°C 54.9°F12.7°C 32% 8.1 mph NNW13.0 kmh NNW 10.4 mph16.7 kmh 29.94 in1013.9 mb - 0.00 in0.0 mm 0.00 in0.0 mm
11:20 PM 88.5°F31.4°C 54.9°F12.7°C 32% 9.2 mph NE14.8 kmh NE 10.4 mph16.7 kmh 29.94 in1013.9 mb - 0.00 in0.0 mm 0.00 in0.0 mm
11:25 PM 88.3°F31.3°C 54.7°F12.6°C 32% 8.1 mph N13.0 kmh N 10.4 mph16.7 kmh 29.94 in1013.9 mb - 0.00 in0.0 mm 0.00 in0.0 mm
11:30 PM 88.3°F31.3°C 54.7°F12.6°C 32% 8.1 mph NE13.0 kmh NE 11.5 mph18.5 kmh 29.94 in1013.9 mb - 0.00 in0.0 mm 0.00 in0.0 mm
11:35 PM 88.2°F31.2°C 54.6°F12.6°C 32% 8.1 mph NE13.0 kmh NE 10.4 mph16.7 kmh 29.95 in1014.2 mb - 0.00 in0.0 mm 0.00 in0.0 mm
11:40 PM 88.2°F31.2°C 54.6°F12.6°C 32% 8.1 mph N13.0 kmh N 10.4 mph16.7 kmh 29.95 in1014.2 mb - 0.00 in0.0 mm 0.00 in0.0 mm
11:45 PM 88.2°F31.2°C 54.6°F12.6°C 32% 6.9 mph NNE11.1 kmh NNE 9.2 mph14.8 kmh 29.94 in1013.9 mb - 0.00 in0.0 mm 0.00 in0.0 mm
11:50 PM 88.2°F31.2°C 54.6°F12.6°C 32% 6.9 mph NNE11.1 kmh NNE 8.1 mph13.0 kmh 29.94 in1013.9 mb - 0.00 in0.0 mm 0.00 in0.0 mm
11:55 PM 88.2°F31.2°C 54.6°F12.6°C 32% 8.1 mph NNE13.0 kmh NNE 10.4 mph16.7 kmh 29.94 in1013.9 mb - 0.00 in0.0 mm 0.00 in0.0 mm